Time;durP1;ratioP1;P1;durP2;ratioP2;P2;SDS_P1;SDS_P2;PMS_P1;PMS_P2;Temp;Humidity;BMP_temperature;BMP_pressure;BME280_temperature;BME280_humidity;BME280_pressure;Samples;Min_cycle;Max_cycle;Signal;HPM_P1;HPM_P2
2021/12/05 10:54:19;;;;;;;5.32;2.20;;;;;;;;;;5105444;27;20644;-87
2021/12/05 10:56:49;;;;;;;3.00;2.60;;;;;;;;;;5088928;28;20505;-85
2021/12/05 10:59:18;;;;;;;4.13;3.08;;;;;;;;;;5088129;28;20025;-85
2021/12/05 11:01:44;;;;;;;5.05;2.65;;;;;;;;;;5071900;28;20093;-83
2021/12/05 11:04:14;;;;;;;7.15;2.67;;;;;;;;;;5088668;28;20367;-84
2021/12/05 11:06:54;;;;;;;4.10;2.67;;;;;;;;;;5071069;28;20103;-84
2021/12/05 11:09:35;;;;;;;5.22;3.05;;;;;;;;;;5071844;28;20052;-84
2021/12/05 11:12:09;;;;;;;10.85;3.22;;;;;;;;;;5071614;28;20029;-83
2021/12/05 11:14:41;;;;;;;6.18;3.03;;;;;;;;;;5071461;28;20461;-82
2021/12/05 11:17:15;;;;;;;5.82;3.35;;;;;;;;;;5102447;28;20070;-81
2021/12/05 11:19:44;;;;;;;6.93;4.28;;;;;;;;;;5090654;28;20024;-81
2021/12/05 11:22:17;;;;;;;5.18;3.15;;;;;;;;;;5072291;28;20119;-83
2021/12/05 11:25:00;;;;;;;4.77;2.60;;;;;;;;;;5072620;28;20086;-82
2021/12/05 11:27:30;;;;;;;4.05;3.33;;;;;;;;;;5089167;28;20300;-83
2021/12/05 11:30:03;;;;;;;4.88;2.90;;;;;;;;;;5071327;28;20032;-84
2021/12/05 11:32:48;;;;;;;4.45;2.80;;;;;;;;;;5090411;28;20024;-84
2021/12/05 11:35:39;;;;;;;9.88;3.28;;;;;;;;;;5087939;28;20032;-84
2021/12/05 11:38:09;;;;;;;8.23;3.78;;;;;;;;;;5072045;28;20035;-84
2021/12/05 11:40:43;;;;;;;10.30;4.38;;;;;;;;;;5071474;28;20032;-82
2021/12/05 11:43:12;;;;;;;3.90;2.67;;;;;;;;;;5072956;28;20046;-84
2021/12/05 11:45:58;;;;;;;6.43;3.10;;;;;;;;;;5072161;28;20031;-81
2021/12/05 11:48:29;;;;;;;3.42;2.75;;;;;;;;;;5090599;28;20032;-82
2021/12/05 11:50:56;;;;;;;5.82;3.75;;;;;;;;;;5073856;28;20024;-83
2021/12/05 11:53:49;;;;;;;7.60;4.05;;;;;;;;;;5071702;28;20044;-82
2021/12/05 11:56:22;;;;;;;4.80;3.67;;;;;;;;;;5090466;28;20024;-83
2021/12/05 11:59:12;;;;;;;6.18;2.90;;;;;;;;;;5056399;28;20024;-82
2021/12/05 12:01:54;;;;;;;4.97;2.75;;;;;;;;;;5091035;28;20090;-83
2021/12/05 12:04:24;;;;;;;4.75;3.45;;;;;;;;;;5047893;28;20093;-83
2021/12/05 12:07:10;;;;;;;4.97;3.45;;;;;;;;;;5077749;28;20037;-83
2021/12/05 12:09:36;;;;;;;3.08;2.35;;;;;;;;;;5058702;28;20050;-82
2021/12/05 12:12:02;;;;;;;2.95;2.60;;;;;;;;;;5041640;28;20630;-83
2021/12/05 12:14:28;;;;;;;4.57;3.38;;;;;;;;;;5058071;28;20055;-81
2021/12/05 12:16:54;;;;;;;4.22;2.58;;;;;;;;;;5057803;28;20071;-80
2021/12/05 12:19:22;;;;;;;7.25;3.45;;;;;;;;;;5058963;28;20029;-81
2021/12/05 12:21:51;;;;;;;5.47;3.63;;;;;;;;;;5059159;28;20044;-81
2021/12/05 12:24:17;;;;;;;3.95;3.20;;;;;;;;;;5026952;28;20055;-80
2021/12/05 12:26:43;;;;;;;4.15;3.63;;;;;;;;;;5058652;28;20028;-80
2021/12/05 12:29:11;;;;;;;3.72;2.97;;;;;;;;;;5058246;28;20024;-80
2021/12/05 12:31:41;;;;;;;4.53;2.70;;;;;;;;;;5042250;28;20103;-80
2021/12/05 12:34:10;;;;;;;4.25;2.85;;;;;;;;;;5041274;28;20100;-80
2021/12/05 12:36:40;;;;;;;3.53;2.53;;;;;;;;;;5058308;28;20428;-80
2021/12/05 12:39:14;;;;;;;4.03;2.72;;;;;;;;;;5040989;28;20430;-80
2021/12/05 12:41:39;;;;;;;4.72;3.00;;;;;;;;;;5075247;28;20029;-79
2021/12/05 12:44:07;;;;;;;2.60;2.40;;;;;;;;;;5057495;28;20479;-83
2021/12/05 12:46:48;;;;;;;4.32;2.80;;;;;;;;;;5023405;28;20021;-82
2021/12/05 12:49:14;;;;;;;4.10;2.63;;;;;;;;;;5044453;28;20551;-82
2021/12/05 12:51:44;;;;;;;4.63;3.30;;;;;;;;;;5072368;28;20116;-83
2021/12/05 12:54:15;;;;;;;4.20;2.58;;;;;;;;;;5069981;28;20026;-81
2021/12/05 12:56:43;;;;;;;4.90;2.45;;;;;;;;;;5055507;28;20024;-81
2021/12/05 12:59:17;;;;;;;2.60;2.00;;;;;;;;;;5038871;28;20051;-81
2021/12/05 13:02:14;;;;;;;3.28;2.20;;;;;;;;;;5055625;28;20075;-79
2021/12/05 13:05:04;;;;;;;5.32;3.35;;;;;;;;;;5051099;28;20357;-80
2021/12/05 13:10:29;;;;;;;6.13;3.05;;;;;;;;;;5073355;28;20102;-81
2021/12/05 13:13:18;;;;;;;4.85;3.25;;;;;;;;;;5039048;28;20025;-80
2021/12/05 13:15:45;;;;;;;6.18;2.70;;;;;;;;;;5044020;28;20042;-86
2021/12/05 13:18:10;;;;;;;3.13;2.47;;;;;;;;;;5073707;28;20055;-82
2021/12/05 13:20:42;;;;;;;4.40;2.78;;;;;;;;;;5057779;28;20047;-82
2021/12/05 13:23:14;;;;;;;4.75;3.00;;;;;;;;;;5062103;28;20035;-85
2021/12/05 13:26:19;;;;;;;6.82;3.45;;;;;;;;;;5062590;28;20016;-83
2021/12/05 13:28:58;;;;;;;3.22;2.60;;;;;;;;;;5075556;28;20028;-84
2021/12/05 13:31:27;;;;;;;2.85;2.20;;;;;;;;;;5047453;28;20108;-82
2021/12/05 13:34:19;;;;;;;8.10;2.20;;;;;;;;;;5080457;28;20044;-82
2021/12/05 13:37:04;;;;;;;2.10;1.83;;;;;;;;;;5080359;28;20025;-82
2021/12/05 13:39:47;;;;;;;3.47;2.42;;;;;;;;;;5080671;28;20035;-82
2021/12/05 13:42:25;;;;;;;5.05;1.98;;;;;;;;;;5080347;28;20063;-82
2021/12/05 13:45:00;;;;;;;5.63;3.30;;;;;;;;;;5078444;28;20027;-82
2021/12/05 13:47:32;;;;;;;3.20;2.90;;;;;;;;;;5081610;28;20023;-83
2021/12/05 13:50:16;;;;;;;5.18;3.00;;;;;;;;;;5061211;28;20074;-82
2021/12/05 13:52:47;;;;;;;3.15;2.53;;;;;;;;;;5082334;28;20048;-82
2021/12/05 13:55:33;;;;;;;4.07;2.58;;;;;;;;;;5077489;28;20055;-83
2021/12/05 13:58:14;;;;;;;5.70;3.00;;;;;;;;;;5076542;28;20194;-82
2021/12/05 14:00:46;;;;;;;4.10;2.80;;;;;;;;;;5077197;28;20082;-82
2021/12/05 14:03:11;;;;;;;4.22;3.05;;;;;;;;;;5040508;28;20028;-82
2021/12/05 14:05:46;;;;;;;4.50;2.90;;;;;;;;;;5075123;28;20021;-83
2021/12/05 14:08:13;;;;;;;3.22;2.92;;;;;;;;;;5056846;28;20024;-83
2021/12/05 14:10:43;;;;;;;4.32;2.95;;;;;;;;;;5039617;28;20032;-84
2021/12/05 14:13:10;;;;;;;3.55;2.60;;;;;;;;;;5057822;28;20021;-83
2021/12/05 14:15:35;;;;;;;2.97;2.60;;;;;;;;;;5056131;28;20032;-83
2021/12/05 14:18:01;;;;;;;2.70;2.47;;;;;;;;;;5056932;28;20032;-83
2021/12/05 14:20:27;;;;;;;4.03;3.00;;;;;;;;;;5055911;28;20071;-82
2021/12/05 14:22:54;;;;;;;3.17;2.80;;;;;;;;;;5057729;28;20383;-82
2021/12/05 14:25:22;;;;;;;3.60;2.78;;;;;;;;;;5041575;28;20029;-80
2021/12/05 14:27:54;;;;;;;3.00;2.70;;;;;;;;;;5057288;28;20103;-80
2021/12/05 14:30:24;;;;;;;4.85;2.95;;;;;;;;;;5056384;28;20383;-81
2021/12/05 14:32:53;;;;;;;4.15;2.72;;;;;;;;;;5039368;28;20498;-79
2021/12/05 14:35:23;;;;;;;2.70;2.38;;;;;;;;;;5056152;28;20036;-81
2021/12/05 14:37:50;;;;;;;3.67;2.53;;;;;;;;;;5039677;28;20082;-80
2021/12/05 14:40:19;;;;;;;4.03;2.50;;;;;;;;;;5040648;28;20468;-81
2021/12/05 14:42:48;;;;;;;2.63;2.40;;;;;;;;;;5040668;28;20123;-81
2021/12/05 14:45:23;;;;;;;3.00;2.70;;;;;;;;;;5056790;28;20475;-80
2021/12/05 14:47:50;;;;;;;2.53;2.30;;;;;;;;;;5074685;28;20024;-80
2021/12/05 14:50:23;;;;;;;2.47;2.15;;;;;;;;;;5057328;28;20025;-80
2021/12/05 14:52:53;;;;;;;3.33;2.50;;;;;;;;;;5056990;28;20040;-79
2021/12/05 14:55:20;;;;;;;4.13;3.03;;;;;;;;;;5056751;28;20055;-81
2021/12/05 14:57:48;;;;;;;3.97;3.17;;;;;;;;;;5056152;28;20021;-80
2021/12/05 15:00:29;;;;;;;4.28;2.50;;;;;;;;;;5039254;28;20471;-81
2021/12/05 15:03:02;;;;;;;11.15;3.15;;;;;;;;;;5074605;28;20035;-79
2021/12/05 15:05:28;;;;;;;7.27;2.77;;;;;;;;;;5056813;28;20025;-81
2021/12/05 15:08:04;;;;;;;2.80;2.47;;;;;;;;;;5056797;28;20272;-81
2021/12/05 15:10:29;;;;;;;4.75;2.97;;;;;;;;;;5055897;28;20043;-80
2021/12/05 15:12:55;;;;;;;4.35;3.30;;;;;;;;;;5055476;28;20107;-80
2021/12/05 15:15:23;;;;;;;4.32;3.38;;;;;;;;;;5074069;28;20429;-82
2021/12/05 15:17:48;;;;;;;3.67;2.80;;;;;;;;;;5072685;28;20332;-84
2021/12/05 15:20:20;;;;;;;4.10;3.10;;;;;;;;;;5055004;28;20028;-86
2021/12/05 15:22:49;;;;;;;15.52;3.17;;;;;;;;;;5054949;28;20148;-85
2021/12/05 15:25:17;;;;;;;6.72;2.70;;;;;;;;;;5036918;28;20034;-83
2021/12/05 15:27:44;;;;;;;2.50;2.30;;;;;;;;;;5053916;28;20021;-81
2021/12/05 15:30:15;;;;;;;6.28;2.60;;;;;;;;;;5072053;28;20063;-82
2021/12/05 15:32:41;;;;;;;3.42;2.30;;;;;;;;;;5073358;28;20021;-82
2021/12/05 15:35:16;;;;;;;4.03;2.50;;;;;;;;;;5072746;28;20369;-81
2021/12/05 15:37:49;;;;;;;2.65;2.40;;;;;;;;;;5038657;28;20036;-81
2021/12/05 15:40:14;;;;;;;2.60;2.33;;;;;;;;;;5040141;28;20367;-81
2021/12/05 15:42:40;;;;;;;5.13;2.45;;;;;;;;;;5059184;28;20123;-84
2021/12/05 15:45:09;;;;;;;4.20;2.78;;;;;;;;;;5078070;28;20103;-85
2021/12/05 15:47:36;;;;;;;2.70;2.50;;;;;;;;;;5040357;28;20021;-84
2021/12/05 15:50:11;;;;;;;3.78;2.80;;;;;;;;;;5057509;28;20021;-84
2021/12/05 15:52:47;;;;;;;4.25;2.95;;;;;;;;;;5056724;28;20049;-84
2021/12/05 15:55:15;;;;;;;4.80;2.65;;;;;;;;;;5056946;28;20020;-83
2021/12/05 15:57:45;;;;;;;3.80;2.50;;;;;;;;;;5074732;28;20123;-83
2021/12/05 16:00:16;;;;;;;4.25;2.88;;;;;;;;;;5040068;28;20025;-84
2021/12/05 16:02:46;;;;;;;3.72;2.58;;;;;;;;;;5056401;28;20104;-84
2021/12/05 16:05:14;;;;;;;4.13;2.90;;;;;;;;;;5056528;28;20064;-83
2021/12/05 16:07:40;;;;;;;3.00;2.70;;;;;;;;;;5040421;28;20029;-82
2021/12/05 16:10:13;;;;;;;3.65;2.97;;;;;;;;;;5077256;28;20027;-83
2021/12/05 16:12:41;;;;;;;3.97;3.30;;;;;;;;;;5057981;28;20016;-81
2021/12/05 16:15:07;;;;;;;4.30;3.40;;;;;;;;;;5057447;28;20467;-83
2021/12/05 16:17:33;;;;;;;5.65;3.63;;;;;;;;;;5074893;28;20086;-84
2021/12/05 16:20:15;;;;;;;7.90;3.95;;;;;;;;;;5059372;28;20052;-83
2021/12/05 16:23:08;;;;;;;3.85;3.28;;;;;;;;;;5060807;28;20032;-81
2021/12/05 16:25:36;;;;;;;3.70;3.40;;;;;;;;;;5057847;28;20024;-81
2021/12/05 16:28:04;;;;;;;4.18;2.90;;;;;;;;;;5056253;28;20497;-88
2021/12/05 16:30:34;;;;;;;3.90;3.45;;;;;;;;;;5074148;28;20036;-80
2021/12/05 16:33:03;;;;;;;10.15;6.00;;;;;;;;;;5074613;28;20021;-82
2021/12/05 16:35:35;;;;;;;6.85;5.30;;;;;;;;;;5056766;28;20498;-87
2021/12/05 16:38:06;;;;;;;8.73;5.63;;;;;;;;;;5075299;28;20052;-80
2021/12/05 16:41:10;;;;;;;8.40;6.00;;;;;;;;;;5057409;28;20029;-82
2021/12/05 16:43:40;;;;;;;10.15;6.63;;;;;;;;;;5055381;28;20124;-81
2021/12/05 16:46:15;;;;;;;9.63;5.35;;;;;;;;;;5041302;28;20035;-80
2021/12/05 16:48:42;;;;;;;4.97;4.47;;;;;;;;;;5057968;28;20025;-82
2021/12/05 16:51:12;;;;;;;6.13;5.07;;;;;;;;;;5041085;28;20025;-82
2021/12/05 16:53:44;;;;;;;7.53;6.07;;;;;;;;;;5056686;28;20068;-83
2021/12/05 16:56:11;;;;;;;5.85;4.70;;;;;;;;;;5026653;28;20499;-83
2021/12/05 16:58:38;;;;;;;5.40;4.90;;;;;;;;;;5073823;28;20119;-82
2021/12/05 17:01:13;;;;;;;5.22;4.43;;;;;;;;;;5057250;28;20035;-82
2021/12/05 17:03:43;;;;;;;5.55;4.63;;;;;;;;;;5039441;28;20047;-81
2021/12/05 17:06:11;;;;;;;6.80;4.82;;;;;;;;;;5055942;28;20106;-82
2021/12/05 17:08:44;;;;;;;6.38;5.10;;;;;;;;;;5055837;28;20115;-80
2021/12/05 17:11:12;;;;;;;5.45;4.72;;;;;;;;;;5057016;28;20104;-79
2021/12/05 17:13:51;;;;;;;4.72;4.07;;;;;;;;;;5056489;28;20031;-81
2021/12/05 17:16:22;;;;;;;4.70;3.70;;;;;;;;;;5055771;28;20020;-79
2021/12/05 17:18:56;;;;;;;4.88;4.05;;;;;;;;;;5073683;28;20048;-79
2021/12/05 17:21:24;;;;;;;6.15;4.70;;;;;;;;;;5055046;28;20104;-81
2021/12/05 17:23:53;;;;;;;4.55;3.95;;;;;;;;;;5073438;28;20040;-81
2021/12/05 17:26:33;;;;;;;4.88;4.20;;;;;;;;;;5055411;28;20025;-82
2021/12/05 17:29:08;;;;;;;7.25;4.80;;;;;;;;;;5038306;28;20100;-80
2021/12/05 17:31:38;;;;;;;5.65;4.85;;;;;;;;;;5055701;28;20496;-79
2021/12/05 17:34:25;;;;;;;4.97;4.38;;;;;;;;;;5054910;28;20020;-80
2021/12/05 17:37:06;;;;;;;8.50;5.78;;;;;;;;;;5073391;28;20029;-79
2021/12/05 17:39:35;;;;;;;8.23;6.25;;;;;;;;;;5038362;28;20020;-79
2021/12/05 17:42:04;;;;;;;7.38;5.38;;;;;;;;;;5072886;28;20082;-78
2021/12/05 17:44:29;;;;;;;11.98;7.50;;;;;;;;;;5038342;28;20463;-81
2021/12/05 17:46:57;;;;;;;9.48;6.40;;;;;;;;;;5054674;28;20046;-80
2021/12/05 17:49:25;;;;;;;8.52;6.65;;;;;;;;;;5038390;28;20096;-81
2021/12/05 17:51:51;;;;;;;7.35;5.72;;;;;;;;;;5052283;28;20115;-78
2021/12/05 17:54:26;;;;;;;8.02;6.32;;;;;;;;;;5037871;28;20086;-79
2021/12/05 17:56:54;;;;;;;8.73;5.80;;;;;;;;;;5054927;28;20078;-79
2021/12/05 18:04:33;;;;;;;6.07;5.47;;;;;;;;;;5057982;28;20123;-83
2021/12/05 18:06:59;;;;;;;5.80;4.90;;;;;;;;;;5055335;28;20087;-80
2021/12/05 18:09:25;;;;;;;4.85;4.30;;;;;;;;;;5073666;28;20032;-80
2021/12/05 18:11:51;;;;;;;6.20;5.22;;;;;;;;;;5055719;28;20379;-79
2021/12/05 18:14:17;;;;;;;6.90;5.40;;;;;;;;;;5055798;28;20060;-80
2021/12/05 18:16:42;;;;;;;7.13;5.88;;;;;;;;;;5055220;28;20021;-80
2021/12/05 18:19:12;;;;;;;8.13;6.45;;;;;;;;;;5073090;28;20032;-80
2021/12/05 18:21:39;;;;;;;6.55;5.53;;;;;;;;;;5073305;28;20025;-81
2021/12/05 18:24:07;;;;;;;8.45;6.38;;;;;;;;;;5055382;28;20031;-82
2021/12/05 18:26:34;;;;;;;8.45;6.28;;;;;;;;;;5055127;28;20110;-81
2021/12/05 18:28:59;;;;;;;7.28;5.18;;;;;;;;;;5073141;28;20036;-84
2021/12/05 18:31:27;;;;;;;7.93;5.55;;;;;;;;;;5072632;28;20360;-81
2021/12/05 18:33:58;;;;;;;6.75;5.65;;;;;;;;;;5055119;28;20052;-78
2021/12/05 18:36:25;;;;;;;9.05;5.68;;;;;;;;;;5073180;28;20103;-80
2021/12/05 18:38:51;;;;;;;5.72;5.10;;;;;;;;;;5055771;28;20082;-80
2021/12/05 18:41:17;;;;;;;8.30;5.90;;;;;;;;;;5055959;28;20486;-81
2021/12/05 18:43:44;;;;;;;7.18;5.90;;;;;;;;;;5073133;28;20116;-78
2021/12/05 18:46:11;;;;;;;9.27;6.78;;;;;;;;;;5055662;28;20028;-81
2021/12/05 18:48:37;;;;;;;8.38;6.30;;;;;;;;;;5038672;28;20048;-79
2021/12/05 18:51:03;;;;;;;9.02;7.03;;;;;;;;;;5073631;28;20025;-79
2021/12/05 18:53:29;;;;;;;9.65;7.20;;;;;;;;;;5055332;28;20097;-81
2021/12/05 18:55:54;;;;;;;8.05;6.45;;;;;;;;;;5055210;28;20036;-80
2021/12/05 18:58:23;;;;;;;7.75;6.30;;;;;;;;;;5055383;28;20020;-83
2021/12/05 19:06:29;;;;;;;8.85;6.80;;;;;;;;;;5058493;28;20067;-81
2021/12/05 19:14:09;;;;;;;10.43;7.30;;;;;;;;;;5080343;28;20031;-80
2021/12/05 19:16:35;;;;;;;9.68;7.20;;;;;;;;;;5066579;28;20024;-81
2021/12/05 19:19:03;;;;;;;10.60;7.57;;;;;;;;;;5051673;28;20051;-84
2021/12/05 19:21:29;;;;;;;12.10;9.15;;;;;;;;;;5069715;28;20035;-83
2021/12/05 19:23:56;;;;;;;13.50;9.30;;;;;;;;;;5084929;28;20024;-84
2021/12/05 19:26:22;;;;;;;11.50;8.77;;;;;;;;;;5049808;28;20051;-84
2021/12/05 19:28:48;;;;;;;10.75;8.43;;;;;;;;;;5066361;28;20027;-85
2021/12/05 19:31:13;;;;;;;11.70;8.25;;;;;;;;;;5082416;28;20033;-80
2021/12/05 19:33:39;;;;;;;12.02;8.98;;;;;;;;;;5043486;28;20054;-83
2021/12/05 19:36:05;;;;;;;8.25;6.50;;;;;;;;;;5061113;28;20078;-81
2021/12/05 19:38:30;;;;;;;9.68;7.63;;;;;;;;;;5077889;28;20512;-80
2021/12/05 19:40:58;;;;;;;9.65;7.68;;;;;;;;;;5043339;28;20028;-79
2021/12/05 19:43:26;;;;;;;7.78;6.53;;;;;;;;;;5060404;28;20049;-81
2021/12/05 19:45:54;;;;;;;13.90;8.02;;;;;;;;;;5042144;28;20025;-79
2021/12/05 19:48:20;;;;;;;9.15;7.53;;;;;;;;;;5042250;28;20028;-79
2021/12/05 19:50:47;;;;;;;9.95;7.57;;;;;;;;;;5059517;28;20486;-80
2021/12/05 19:53:13;;;;;;;10.82;8.50;;;;;;;;;;5079014;28;20060;-86
